createdAt,value
2018-11-14T00:00:48.032Z,6.16
2018-11-14T00:03:16.936Z,6.15
2018-11-14T00:05:45.798Z,6.14
2018-11-14T00:08:15.703Z,6.13
2018-11-14T00:10:44.659Z,6.12
2018-11-14T00:13:13.659Z,6.13
2018-11-14T00:15:42.874Z,6.17
2018-11-14T00:18:12.318Z,6.28
2018-11-14T00:20:41.636Z,6.30
2018-11-14T00:23:10.691Z,6.28
2018-11-14T00:25:43.578Z,6.28
2018-11-14T00:28:12.652Z,6.21
2018-11-14T00:30:41.643Z,6.16
2018-11-14T00:33:11.378Z,6.11
2018-11-14T00:35:40.558Z,6.07
2018-11-14T00:38:09.453Z,6.10
2018-11-14T00:40:38.369Z,6.08
2018-11-14T00:43:07.422Z,6.12
2018-11-14T00:45:36.417Z,6.15
2018-11-14T00:48:06.159Z,6.13
2018-11-14T00:50:35.093Z,6.09
2018-11-14T00:53:04.094Z,6.07
2018-11-14T00:55:33.037Z,6.04
2018-11-14T00:58:02.307Z,6.04
2018-11-14T01:00:31.419Z,6.05
2018-11-14T01:03:00.380Z,6.15
2018-11-14T01:05:29.424Z,6.23
2018-11-14T01:07:58.570Z,6.22
2018-11-14T01:10:27.453Z,6.17
2018-11-14T01:13:00.736Z,6.14
2018-11-14T01:15:29.709Z,6.07
2018-11-14T01:17:59.834Z,6.04
2018-11-14T01:20:30.455Z,6.02
2018-11-14T01:22:59.655Z,6.02
2018-11-14T01:25:28.582Z,6.09
2018-11-14T01:27:57.637Z,6.18
2018-11-14T01:30:26.496Z,6.22
2018-11-14T01:32:55.527Z,6.19
2018-11-14T01:35:24.467Z,6.19
2018-11-14T01:37:53.843Z,6.15
2018-11-14T01:40:25.705Z,6.13
2018-11-14T01:42:55.950Z,6.07
2018-11-14T01:45:26.066Z,5.99
2018-11-14T01:47:55.189Z,5.98
2018-11-14T01:50:24.300Z,6.00
2018-11-14T01:52:56.326Z,6.04
2018-11-14T01:55:25.527Z,6.15
2018-11-14T01:57:54.466Z,6.14
2018-11-14T02:00:24.656Z,6.10
2018-11-14T02:02:53.634Z,6.05
2018-11-14T02:05:22.616Z,6.02
2018-11-14T02:07:51.661Z,5.98
2018-11-14T02:10:21.539Z,5.93
2018-11-14T02:12:50.420Z,5.89
2018-11-14T02:15:22.801Z,5.93
2018-11-14T02:17:51.943Z,6.03
2018-11-14T02:20:20.814Z,6.01
2018-11-14T02:22:50.000Z,5.91
2018-11-14T02:25:19.128Z,5.90
2018-11-14T02:27:48.007Z,5.90
2018-11-14T02:30:19.297Z,5.93
2018-11-14T02:32:48.264Z,5.90
2018-11-14T02:35:17.144Z,5.89
2018-11-14T02:37:46.691Z,5.93
2018-11-14T02:40:16.863Z,5.96
2018-11-14T02:42:45.896Z,5.91
2018-11-14T02:45:15.246Z,5.86
2018-11-14T02:47:44.555Z,5.85
2018-11-14T02:50:14.994Z,5.88
2018-11-14T02:52:43.894Z,5.87
2018-11-14T02:55:14.215Z,5.79
2018-11-14T02:57:43.534Z,5.74
2018-11-14T03:00:16.889Z,5.75
2018-11-14T03:02:46.803Z,5.83
2018-11-14T03:05:15.692Z,5.84
2018-11-14T03:07:44.646Z,5.79
2018-11-14T03:10:16.443Z,5.76
2018-11-14T03:12:45.331Z,5.69
2018-11-14T03:15:17.002Z,5.66
2018-11-14T03:17:45.994Z,5.66
2018-11-14T03:20:16.346Z,5.65
2018-11-14T03:22:46.092Z,5.63
2018-11-14T03:25:18.383Z,5.59
2018-11-14T03:27:51.472Z,5.57
2018-11-14T03:30:24.875Z,5.57
2018-11-14T03:32:58.186Z,5.56
2018-11-14T03:35:31.313Z,5.56
2018-11-14T03:38:00.557Z,5.56
2018-11-14T03:40:29.584Z,5.62
2018-11-14T03:42:58.626Z,5.67
2018-11-14T03:45:27.761Z,5.67
2018-11-14T03:47:56.678Z,5.64
2018-11-14T03:50:25.650Z,5.67
2018-11-14T03:52:54.637Z,5.73
2018-11-14T03:55:23.718Z,5.77
2018-11-14T03:57:52.698Z,5.79
2018-11-14T04:00:21.721Z,5.81
2018-11-14T04:02:50.796Z,5.79
2018-11-14T04:05:19.878Z,5.79
2018-11-14T04:07:49.694Z,5.77
2018-11-14T04:10:19.057Z,5.74
2018-11-14T04:12:48.575Z,5.76
2018-11-14T04:15:18.071Z,5.74
2018-11-14T04:17:47.613Z,5.71
2018-11-14T04:20:17.880Z,5.64
2018-11-14T04:22:47.521Z,5.57
2018-11-14T04:25:17.895Z,5.50
2018-11-14T04:27:47.656Z,5.45
2018-11-14T04:30:21.771Z,5.44
2018-11-14T04:32:51.487Z,5.47
2018-11-14T04:35:21.613Z,5.47
2018-11-14T04:37:50.560Z,5.47
2018-11-14T04:40:21.477Z,5.48
2018-11-14T04:42:50.498Z,5.47
2018-11-14T04:45:24.312Z,5.42
2018-11-14T04:47:53.401Z,5.38
2018-11-14T04:50:24.275Z,5.35
2018-11-14T04:52:53.914Z,5.31
2018-11-14T04:55:23.861Z,5.28
2018-11-14T04:57:52.889Z,5.24
2018-11-14T05:00:23.602Z,5.24
2018-11-14T05:02:52.633Z,5.21
2018-11-14T05:05:22.729Z,5.23
2018-11-14T05:07:51.681Z,5.28
2018-11-14T05:10:23.273Z,5.34
2018-11-14T05:12:52.776Z,5.29
2018-11-14T05:15:22.938Z,5.31
2018-11-14T05:17:52.707Z,5.28
2018-11-14T05:20:22.229Z,5.22
2018-11-14T05:22:51.394Z,5.15
2018-11-14T05:25:20.847Z,5.10
2018-11-14T05:27:49.797Z,5.12
2018-11-14T05:30:20.190Z,5.15
2018-11-14T05:32:49.893Z,5.22
2018-11-14T05:35:18.862Z,5.27
2018-11-14T05:37:48.276Z,5.28
2018-11-14T05:40:18.718Z,5.26
2018-11-14T05:42:49.025Z,5.24
2018-11-14T05:45:21.598Z,5.28
2018-11-14T05:47:50.580Z,5.36
2018-11-14T05:50:20.831Z,5.42
2018-11-14T05:52:50.048Z,5.47
2018-11-14T05:55:19.022Z,5.49
2018-11-14T05:57:48.073Z,5.53
2018-11-14T06:00:24.633Z,5.57
2018-11-14T06:02:53.584Z,5.59
2018-11-14T06:05:22.667Z,5.61
2018-11-14T06:07:51.764Z,5.60
2018-11-14T06:10:20.877Z,5.58
2018-11-14T06:12:49.882Z,5.55
2018-11-14T06:15:19.916Z,5.54
2018-11-14T06:17:49.809Z,5.48
2018-11-14T06:20:20.002Z,5.43
2018-11-14T06:22:49.858Z,5.41
2018-11-14T06:25:31.607Z,5.44
2018-11-14T06:28:02.479Z,5.43
2018-11-14T06:30:31.929Z,5.40
2018-11-14T06:33:01.697Z,5.35
2018-11-14T06:35:30.648Z,5.27
2018-11-14T06:38:00.614Z,5.26
2018-11-14T06:40:29.953Z,5.24
2018-11-14T06:42:59.045Z,5.32
2018-11-14T06:45:29.469Z,5.38
2018-11-14T06:48:00.362Z,5.41
2018-11-14T06:50:29.649Z,5.45
2018-11-14T06:53:02.063Z,5.47
2018-11-14T06:55:32.131Z,5.47
2018-11-14T06:58:01.539Z,5.48
2018-11-14T07:00:33.280Z,5.52
2018-11-14T07:03:03.882Z,5.57
2018-11-14T07:05:32.933Z,5.58
2018-11-14T07:08:01.971Z,5.63
2018-11-14T07:10:32.506Z,5.67
2018-11-14T07:13:04.785Z,5.68
2018-11-14T07:15:34.161Z,5.75
2018-11-14T07:18:03.823Z,5.83
2018-11-14T07:20:35.532Z,5.90
2018-11-14T07:23:05.703Z,5.96
2018-11-14T07:25:35.172Z,6.04
2018-11-14T07:28:04.490Z,6.08
2018-11-14T07:30:34.179Z,6.13
2018-11-14T07:33:09.572Z,6.18
2018-11-14T07:35:38.709Z,6.22
2018-11-14T07:38:42.134Z,6.25
2018-11-14T07:41:14.563Z,6.28
2018-11-14T07:43:44.151Z,6.36
2018-11-14T07:46:14.116Z,6.39
2018-11-14T07:48:44.884Z,6.46
2018-11-14T07:51:13.910Z,6.56
2018-11-14T07:53:42.858Z,6.59
2018-11-14T07:56:11.992Z,6.65
2018-11-14T07:58:45.773Z,6.70
2018-11-14T08:01:14.938Z,6.74
2018-11-14T08:03:44.016Z,6.78
2018-11-14T08:06:12.966Z,6.82
2018-11-14T08:08:42.067Z,6.88
2018-11-14T08:11:11.058Z,6.94
2018-11-14T08:13:41.597Z,6.98
2018-11-14T08:16:10.537Z,7.02
2018-11-14T08:18:39.620Z,7.02
2018-11-14T08:21:09.970Z,7.07
2018-11-14T08:23:39.393Z,7.13
2018-11-14T08:26:16.878Z,7.15
2018-11-14T08:28:45.834Z,7.24
2018-11-14T08:31:14.939Z,7.29
2018-11-14T08:33:44.253Z,7.37
2018-11-14T08:36:13.764Z,7.42
2018-11-14T08:38:47.031Z,7.43
2018-11-14T08:41:17.232Z,7.47
2018-11-14T08:43:47.035Z,7.51
2018-11-14T08:46:16.063Z,7.53
2018-11-14T08:48:45.080Z,7.56
2018-11-14T08:51:14.866Z,7.61
2018-11-14T08:53:48.392Z,7.66
2018-11-14T08:56:17.909Z,7.75
2018-11-14T08:58:48.095Z,7.80
2018-11-14T09:01:17.412Z,7.81
2018-11-14T09:03:46.390Z,7.88
2018-11-14T09:06:15.374Z,7.94
2018-11-14T09:08:44.948Z,8.02
2018-11-14T09:11:14.094Z,8.14
2018-11-14T09:13:43.425Z,8.20
2018-11-14T09:16:12.526Z,8.25
2018-11-14T09:18:41.468Z,8.27
2018-11-14T09:21:10.594Z,8.27
2018-11-14T09:23:39.748Z,8.35
2018-11-14T09:26:08.649Z,8.41
2018-11-14T09:28:41.933Z,8.48
2018-11-14T09:31:11.879Z,8.66
2018-11-14T09:33:40.826Z,8.73
2018-11-14T09:36:14.094Z,8.74
2018-11-14T09:38:43.117Z,8.81
2018-11-14T09:41:12.099Z,8.81
2018-11-14T09:43:41.102Z,8.83
2018-11-14T09:46:10.225Z,8.85
2018-11-14T09:48:39.599Z,8.91
2018-11-14T09:51:08.616Z,8.93
2018-11-14T09:53:37.917Z,8.98
2018-11-14T09:56:07.038Z,9.01
2018-11-14T09:58:36.438Z,9.06
2018-11-14T10:01:06.139Z,9.09
2018-11-14T10:03:36.114Z,9.16
2018-11-14T10:06:05.249Z,9.23
2018-11-14T10:08:34.307Z,9.30
2018-11-14T10:11:03.588Z,9.40
2018-11-14T10:13:32.607Z,9.46
2018-11-14T10:16:02.491Z,9.55
2018-11-14T10:18:31.506Z,9.58
2018-11-14T10:21:00.604Z,9.65
2018-11-14T10:23:30.038Z,9.71
2018-11-14T10:25:58.974Z,9.77
2018-11-14T10:28:27.936Z,9.84
2018-11-14T10:30:57.111Z,9.89
2018-11-14T10:33:26.071Z,9.93
2018-11-14T10:35:55.309Z,9.92
2018-11-14T10:38:24.309Z,10.03
2018-11-14T10:40:53.191Z,10.18
2018-11-14T10:43:22.460Z,10.29
2018-11-14T10:45:51.701Z,10.37
2018-11-14T10:48:20.570Z,10.48
2018-11-14T10:50:50.361Z,10.55
2018-11-14T10:53:19.371Z,10.60
2018-11-14T10:55:48.356Z,10.72
2018-11-14T10:58:17.277Z,10.81
2018-11-14T11:00:48.077Z,10.92
2018-11-14T11:03:22.759Z,10.89
2018-11-14T11:05:56.919Z,10.92
2018-11-14T11:08:30.813Z,10.88
2018-11-14T11:11:05.024Z,11.01
2018-11-14T11:13:39.423Z,11.12
2018-11-14T11:16:13.532Z,11.23
2018-11-14T11:18:42.495Z,11.26
2018-11-14T11:21:11.763Z,11.34
2018-11-14T11:23:41.118Z,11.37
2018-11-14T11:26:10.395Z,11.47
2018-11-14T11:28:39.387Z,11.62
2018-11-14T11:31:08.923Z,11.75
2018-11-14T11:33:38.114Z,11.86
2018-11-14T11:36:07.159Z,11.92
2018-11-14T11:38:36.045Z,11.93
2018-11-14T11:41:05.169Z,11.91
2018-11-14T11:43:34.423Z,11.87
2018-11-14T11:46:03.841Z,12.01
2018-11-14T11:48:32.771Z,12.04
2018-11-14T11:51:01.978Z,12.15
2018-11-14T11:53:30.958Z,12.25
2018-11-14T11:56:00.010Z,12.26
2018-11-14T11:58:29.081Z,12.26
2018-11-14T12:00:58.025Z,12.29
2018-11-14T12:03:27.397Z,12.29
2018-11-14T12:05:56.498Z,12.41
2018-11-14T12:08:26.293Z,12.49
2018-11-14T12:10:55.759Z,12.65
2018-11-14T12:13:24.744Z,12.71
2018-11-14T12:15:53.675Z,12.79
2018-11-14T12:18:22.715Z,12.78
2018-11-14T12:20:51.785Z,12.82
2018-11-14T12:23:20.829Z,12.86
2018-11-14T12:25:49.801Z,12.94
2018-11-14T12:28:18.898Z,12.96
2018-11-14T12:30:48.050Z,13.02
2018-11-14T12:33:17.243Z,13.04
2018-11-14T12:35:46.546Z,13.01
2018-11-14T12:38:15.542Z,13.13
2018-11-14T12:40:44.491Z,13.02
2018-11-14T12:43:13.930Z,13.05
2018-11-14T12:45:42.902Z,13.23
2018-11-14T12:48:12.369Z,13.26
2018-11-14T12:50:41.679Z,13.28
2018-11-14T12:53:10.678Z,13.28
2018-11-14T12:55:39.825Z,13.36
2018-11-14T12:58:08.814Z,13.40
2018-11-14T13:00:38.147Z,13.38
2018-11-14T13:03:07.874Z,13.45
2018-11-14T13:05:36.789Z,13.51
2018-11-14T13:08:05.738Z,13.57
2018-11-14T13:10:34.671Z,13.66
2018-11-14T13:13:03.710Z,13.61
2018-11-14T13:15:32.600Z,13.65
2018-11-14T13:18:01.604Z,13.77
2018-11-14T13:20:31.380Z,13.78
2018-11-14T13:23:00.361Z,13.89
2018-11-14T13:25:34.464Z,13.91
2018-11-14T13:28:03.461Z,13.73
2018-11-14T13:30:32.861Z,13.72
2018-11-14T13:33:03.727Z,13.81
2018-11-14T13:35:32.971Z,14.00
2018-11-14T13:38:01.973Z,14.21
2018-11-14T13:40:31.328Z,14.37
2018-11-14T13:43:00.338Z,14.72
2018-11-14T13:45:29.318Z,15.68
2018-11-14T13:47:59.351Z,16.84
2018-11-14T13:50:28.860Z,17.49
2018-11-14T13:52:58.719Z,18.13
2018-11-14T13:55:28.014Z,18.34
2018-11-14T13:57:59.382Z,18.73
2018-11-14T14:00:28.458Z,18.72
2018-11-14T14:02:57.405Z,19.14
2018-11-14T14:05:26.550Z,18.90
2018-11-14T14:07:55.903Z,18.60
2018-11-14T14:10:24.956Z,18.60
2018-11-14T14:12:54.642Z,18.37
2018-11-14T14:15:26.208Z,18.36
2018-11-14T14:17:55.491Z,18.45
2018-11-14T14:20:24.992Z,18.31
2018-11-14T14:22:53.970Z,17.95
2018-11-14T14:25:23.855Z,17.68
2018-11-14T14:27:52.894Z,17.31
2018-11-14T14:30:23.419Z,16.86
2018-11-14T14:32:52.522Z,16.67
2018-11-14T14:35:22.499Z,16.45
2018-11-14T14:37:51.505Z,16.07
2018-11-14T14:40:21.801Z,15.70
2018-11-14T14:42:50.950Z,15.36
2018-11-14T14:45:22.443Z,15.02
2018-11-14T14:47:51.533Z,14.71
2018-11-14T14:50:28.003Z,14.41
2018-11-14T14:52:57.297Z,14.08
2018-11-14T14:55:26.659Z,13.81
2018-11-14T14:57:55.679Z,13.45
2018-11-14T15:00:37.430Z,13.11
2018-11-14T15:03:06.764Z,12.72
2018-11-14T15:05:36.572Z,12.44
2018-11-14T15:08:05.688Z,12.09
2018-11-14T15:10:35.140Z,11.80
2018-11-14T15:13:04.205Z,11.46
2018-11-14T15:15:35.095Z,11.14
2018-11-14T15:18:04.094Z,10.87
2018-11-14T15:20:33.400Z,10.56
2018-11-14T15:23:02.334Z,10.27
2018-11-14T15:25:31.296Z,9.99
2018-11-14T15:28:00.295Z,9.74
2018-11-14T15:30:30.362Z,9.46
2018-11-14T15:32:59.382Z,9.18
2018-11-14T15:35:28.332Z,8.92
2018-11-14T15:37:57.510Z,8.67
2018-11-14T15:40:27.389Z,8.42
2018-11-14T15:42:56.592Z,8.19
2018-11-14T15:45:29.580Z,8.00
2018-11-14T15:47:58.638Z,7.85
2018-11-14T15:50:28.822Z,7.77
2018-11-14T15:52:58.487Z,7.65
2018-11-14T15:55:27.422Z,7.58
2018-11-14T15:57:56.732Z,7.55
2018-11-14T16:00:31.518Z,7.44
2018-11-14T16:03:00.631Z,7.29
2018-11-14T16:05:30.791Z,7.17
2018-11-14T16:08:00.970Z,7.04
2018-11-14T16:10:33.114Z,6.89
2018-11-14T16:13:06.394Z,6.74
2018-11-14T16:15:36.758Z,6.60
2018-11-14T16:18:06.252Z,6.49
2018-11-14T16:20:35.177Z,6.42
2018-11-14T16:23:04.738Z,6.35
2018-11-14T16:25:33.923Z,6.29
2018-11-14T16:28:03.550Z,6.25
2018-11-14T16:30:34.851Z,6.24
2018-11-14T16:33:05.943Z,6.19
2018-11-14T16:35:35.049Z,6.11
2018-11-14T16:38:04.315Z,6.04
2018-11-14T16:40:34.707Z,5.96
2018-11-14T16:43:05.705Z,5.89
2018-11-14T16:45:34.695Z,5.89
2018-11-14T16:48:03.853Z,5.86
2018-11-14T16:50:32.890Z,5.82
2018-11-14T16:53:01.870Z,5.78
2018-11-14T16:55:31.417Z,5.74
2018-11-14T16:58:00.307Z,5.69
2018-11-14T17:00:30.693Z,5.61
2018-11-14T17:03:00.271Z,5.54
2018-11-14T17:05:30.467Z,5.51
2018-11-14T17:08:01.622Z,5.52
2018-11-14T17:10:30.709Z,5.50
2018-11-14T17:13:01.371Z,5.50
2018-11-14T17:15:30.763Z,5.52
2018-11-14T17:17:59.728Z,5.51
2018-11-14T17:20:28.837Z,5.48
2018-11-14T17:22:58.095Z,5.42
2018-11-14T17:25:27.233Z,5.36
2018-11-14T17:27:56.251Z,5.32
2018-11-14T17:30:26.832Z,5.29
2018-11-14T17:32:56.268Z,5.25
2018-11-14T17:35:25.302Z,5.22
2018-11-14T17:37:54.711Z,5.22
2018-11-14T17:40:25.503Z,5.19
2018-11-14T17:42:54.884Z,5.20
2018-11-14T17:45:25.983Z,5.28
2018-11-14T17:47:55.400Z,5.33
2018-11-14T17:50:27.263Z,5.32
2018-11-14T17:52:56.956Z,5.31
2018-11-14T17:55:26.609Z,5.32
2018-11-14T17:57:55.485Z,5.29
2018-11-14T18:00:26.679Z,5.23
2018-11-14T18:02:56.249Z,5.20
2018-11-14T18:05:26.787Z,5.20
2018-11-14T18:07:56.463Z,5.26
2018-11-14T18:10:27.613Z,5.28
2018-11-14T18:12:57.985Z,5.25
2018-11-14T18:15:27.094Z,5.21
2018-11-14T18:17:57.045Z,5.17
2018-11-14T18:20:27.598Z,5.17
2018-11-14T18:22:56.970Z,5.16
2018-11-14T18:25:26.789Z,5.10
2018-11-14T18:27:57.571Z,5.12
2018-11-14T18:30:29.889Z,5.14
2018-11-14T18:32:59.883Z,5.12
2018-11-14T18:35:29.696Z,5.05
2018-11-14T18:37:59.691Z,4.99
2018-11-14T18:40:31.190Z,4.97
2018-11-14T18:43:00.634Z,4.96
2018-11-14T18:45:31.674Z,4.92
2018-11-14T18:48:01.803Z,4.91
2018-11-14T18:50:31.114Z,4.88
2018-11-14T18:53:00.137Z,4.80
2018-11-14T18:55:30.587Z,4.80
2018-11-14T18:58:00.360Z,4.77
2018-11-14T19:00:30.749Z,4.72
2018-11-14T19:03:00.608Z,4.72
2018-11-14T19:05:29.665Z,4.71
2018-11-14T19:07:58.673Z,4.68
2018-11-14T19:10:30.129Z,4.66
2018-11-14T19:12:59.225Z,4.60
2018-11-14T19:15:29.597Z,4.56
2018-11-14T19:17:59.400Z,4.54
2018-11-14T19:20:30.793Z,4.47
2018-11-14T19:23:00.649Z,4.42
2018-11-14T19:25:31.180Z,4.37
2018-11-14T19:28:00.511Z,4.31
2018-11-14T19:30:30.970Z,4.31
2018-11-14T19:33:00.983Z,4.29
2018-11-14T19:35:30.740Z,4.23
2018-11-14T19:38:00.212Z,4.17
2018-11-14T19:40:33.628Z,4.14
2018-11-14T19:43:04.020Z,4.09
2018-11-14T19:45:36.289Z,4.09
2018-11-14T19:48:05.571Z,4.07
2018-11-14T19:50:34.781Z,4.08
2018-11-14T19:53:04.046Z,4.08
2018-11-14T19:55:33.866Z,4.07
2018-11-14T19:58:04.060Z,4.09
2018-11-14T20:00:37.563Z,4.12
2018-11-14T20:03:07.460Z,4.13
2018-11-14T20:05:36.673Z,4.15
2018-11-14T20:08:05.997Z,4.11
2018-11-14T20:10:35.373Z,4.09
2018-11-14T20:13:04.419Z,4.11
2018-11-14T20:15:38.353Z,4.13
2018-11-14T20:18:08.003Z,4.11
2018-11-14T20:20:38.604Z,4.08
2018-11-14T20:23:08.117Z,4.07
2018-11-14T20:25:37.110Z,4.06
2018-11-14T20:28:06.249Z,4.01
2018-11-14T20:30:36.940Z,3.97
2018-11-14T20:33:11.614Z,3.95
2018-11-14T20:35:40.734Z,3.96
2018-11-14T20:38:09.831Z,3.94
2018-11-14T20:40:42.102Z,3.92
2018-11-14T20:43:12.465Z,3.90
2018-11-14T20:45:41.630Z,3.83
2018-11-14T20:48:11.517Z,3.74
2018-11-14T20:50:40.646Z,3.77
2018-11-14T20:53:09.709Z,3.76
2018-11-14T20:55:38.846Z,3.74
2018-11-14T20:58:08.578Z,3.66
2018-11-14T21:00:38.427Z,3.61
2018-11-14T21:03:07.956Z,3.59
2018-11-14T21:05:37.053Z,3.57
2018-11-14T21:08:06.710Z,3.51
2018-11-14T21:10:36.290Z,3.49
2018-11-14T21:13:05.902Z,3.52
2018-11-14T21:15:37.100Z,3.51
2018-11-14T21:18:06.474Z,3.53
2018-11-14T21:20:35.685Z,3.50
2018-11-14T21:23:04.911Z,3.42
2018-11-14T21:25:33.931Z,3.43
2018-11-14T21:28:02.951Z,3.43
2018-11-14T21:30:33.413Z,3.40
2018-11-14T21:33:02.538Z,3.33
2018-11-14T21:35:33.230Z,3.25
2018-11-14T21:38:03.737Z,3.19
2018-11-14T21:40:33.413Z,3.12
2018-11-14T21:43:02.537Z,3.06
2018-11-14T21:45:31.597Z,3.05
2018-11-14T21:48:05.602Z,3.00
2018-11-14T21:50:34.837Z,3.01
2018-11-14T21:53:03.935Z,3.12
2018-11-14T21:55:32.989Z,3.14
2018-11-14T21:58:02.014Z,3.09
2018-11-14T22:00:31.825Z,3.02
2018-11-14T22:03:00.941Z,2.96
2018-11-14T22:05:30.163Z,2.95
2018-11-14T22:07:59.112Z,2.95
2018-11-14T22:10:28.403Z,2.91
2018-11-14T22:12:57.492Z,2.83
2018-11-14T22:15:27.481Z,2.77
2018-11-14T22:17:56.565Z,2.78
2018-11-14T22:20:26.513Z,2.77
2018-11-14T22:22:55.523Z,2.76
2018-11-14T22:25:25.491Z,2.72
2018-11-14T22:27:54.737Z,2.72
2018-11-14T22:30:29.245Z,2.75
2018-11-14T22:32:58.509Z,2.71
2018-11-14T22:35:28.689Z,2.71
2018-11-14T22:37:57.819Z,2.70
2018-11-14T22:40:28.141Z,2.70
2018-11-14T22:42:57.274Z,2.67
2018-11-14T22:45:30.528Z,2.66
2018-11-14T22:47:59.458Z,2.65
2018-11-14T22:50:28.651Z,2.61
2018-11-14T22:52:57.701Z,2.61
2018-11-14T22:55:27.153Z,2.62
2018-11-14T22:57:56.299Z,2.62
2018-11-14T23:00:40.159Z,2.59
2018-11-14T23:03:09.640Z,2.61
2018-11-14T23:05:38.562Z,2.71
2018-11-14T23:08:07.716Z,2.67
2018-11-14T23:10:36.686Z,2.58
2018-11-14T23:13:05.913Z,2.50
2018-11-14T23:15:34.909Z,2.47
2018-11-14T23:18:04.008Z,2.39
2018-11-14T23:20:32.990Z,2.37
2018-11-14T23:23:02.040Z,2.30
2018-11-14T23:25:31.023Z,2.17
2018-11-14T23:27:59.965Z,2.09
2018-11-14T23:30:29.033Z,2.05
2018-11-14T23:32:58.413Z,2.04
2018-11-14T23:35:28.730Z,2.06
2018-11-14T23:38:01.980Z,2.04
2018-11-14T23:40:31.121Z,2.00
2018-11-14T23:43:00.194Z,1.93
2018-11-14T23:45:29.823Z,1.90
2018-11-14T23:47:58.838Z,1.88
2018-11-14T23:50:29.135Z,1.81
2018-11-14T23:52:59.019Z,1.75
2018-11-14T23:55:28.933Z,1.69
2018-11-14T23:57:58.348Z,1.64
